createdAt,value
2022-08-25T00:01:15.000Z,153
2022-08-25T00:02:31.000Z,153
2022-08-25T00:03:47.000Z,153
2022-08-25T00:05:03.000Z,153
2022-08-25T00:06:20.000Z,154
2022-08-25T00:07:36.000Z,154
2022-08-25T00:08:52.000Z,153
2022-08-25T00:10:08.000Z,154
2022-08-25T00:11:24.000Z,153
2022-08-25T00:12:41.000Z,154
2022-08-25T00:13:57.000Z,155
2022-08-25T00:15:13.000Z,154
2022-08-25T00:16:28.000Z,154
2022-08-25T00:17:45.000Z,153
2022-08-25T00:19:01.000Z,155
2022-08-25T00:20:17.000Z,153
2022-08-25T00:21:33.000Z,153
2022-08-25T00:22:50.000Z,155
2022-08-25T00:24:06.000Z,153
2022-08-25T00:25:22.000Z,155
2022-08-25T00:26:37.000Z,155
2022-08-25T00:27:53.000Z,155
2022-08-25T00:29:09.000Z,155
2022-08-25T00:30:25.000Z,154
2022-08-25T00:31:41.000Z,153
2022-08-25T00:32:57.000Z,153
2022-08-25T00:34:12.000Z,154
2022-08-25T00:35:28.000Z,152
2022-08-25T00:36:44.000Z,154
2022-08-25T00:38:00.000Z,156
2022-08-25T00:39:17.000Z,154
2022-08-25T00:40:33.000Z,154
2022-08-25T00:41:49.000Z,154
2022-08-25T00:43:05.000Z,152
2022-08-25T00:44:22.000Z,155
2022-08-25T00:45:38.000Z,153
2022-08-25T00:46:54.000Z,153
2022-08-25T00:48:10.000Z,155
2022-08-25T00:49:27.000Z,155
2022-08-25T00:50:42.000Z,153
2022-08-25T00:51:58.000Z,154
2022-08-25T00:53:14.000Z,155
2022-08-25T00:54:31.000Z,154
2022-08-25T00:55:47.000Z,156
2022-08-25T00:57:03.000Z,154
2022-08-25T00:58:19.000Z,155
2022-08-25T00:59:34.000Z,154
2022-08-25T01:00:50.000Z,155
2022-08-25T01:02:06.000Z,155
2022-08-25T01:03:22.000Z,153
2022-08-25T01:04:38.000Z,153
2022-08-25T01:05:55.000Z,154
2022-08-25T01:07:11.000Z,154
2022-08-25T01:08:27.000Z,154
2022-08-25T01:09:43.000Z,155
2022-08-25T01:11:00.000Z,155
2022-08-25T01:12:16.000Z,153
2022-08-25T01:13:32.000Z,153
2022-08-25T01:14:48.000Z,150
2022-08-25T01:16:05.000Z,153
2022-08-25T01:17:20.000Z,154
2022-08-25T01:18:36.000Z,153
2022-08-25T01:19:52.000Z,155
2022-08-25T01:21:08.000Z,155
2022-08-25T01:22:25.000Z,154
2022-08-25T01:23:41.000Z,154
2022-08-25T01:24:57.000Z,155
2022-08-25T01:26:12.000Z,153
2022-08-25T01:27:28.000Z,155
2022-08-25T01:28:44.000Z,156
2022-08-25T01:30:00.000Z,155
2022-08-25T01:31:15.000Z,154
2022-08-25T01:32:31.000Z,153
2022-08-25T01:33:47.000Z,154
2022-08-25T01:35:03.000Z,155
2022-08-25T01:36:19.000Z,154
2022-08-25T01:37:35.000Z,155
2022-08-25T01:38:50.000Z,155
2022-08-25T01:40:06.000Z,155
2022-08-25T01:41:22.000Z,153
2022-08-25T01:42:39.000Z,155
2022-08-25T01:43:55.000Z,153
2022-08-25T01:45:11.000Z,153
2022-08-25T01:46:27.000Z,153
2022-08-25T01:47:44.000Z,156
2022-08-25T01:49:00.000Z,155
2022-08-25T01:50:16.000Z,155
2022-08-25T01:51:32.000Z,154
2022-08-25T01:52:48.000Z,152
2022-08-25T01:54:05.000Z,156
2022-08-25T01:55:20.000Z,153
2022-08-25T01:56:36.000Z,157
2022-08-25T01:57:52.000Z,155
2022-08-25T01:59:09.000Z,154
2022-08-25T02:00:25.000Z,155
2022-08-25T02:01:41.000Z,156
2022-08-25T02:02:57.000Z,154
2022-08-25T02:04:14.000Z,157
2022-08-25T02:05:30.000Z,155
2022-08-25T02:06:46.000Z,152
2022-08-25T02:08:02.000Z,153
2022-08-25T02:09:19.000Z,154
2022-08-25T02:10:35.000Z,156
2022-08-25T02:11:50.000Z,155
2022-08-25T02:13:06.000Z,155
2022-08-25T02:14:22.000Z,153
2022-08-25T02:15:39.000Z,157
2022-08-25T02:16:55.000Z,155
2022-08-25T02:18:11.000Z,153
2022-08-25T02:19:27.000Z,154
2022-08-25T02:20:44.000Z,156
2022-08-25T02:22:00.000Z,154
2022-08-25T02:23:16.000Z,150
2022-08-25T02:24:32.000Z,153
2022-08-25T02:25:49.000Z,153
2022-08-25T02:27:05.000Z,156
2022-08-25T02:28:20.000Z,154
2022-08-25T02:29:36.000Z,154
2022-08-25T02:30:53.000Z,153
2022-08-25T02:32:09.000Z,156
2022-08-25T02:33:25.000Z,154
2022-08-25T02:34:41.000Z,154
2022-08-25T02:35:57.000Z,154
2022-08-25T02:37:14.000Z,155
2022-08-25T02:38:30.000Z,155
2022-08-25T02:39:46.000Z,156
2022-08-25T02:41:02.000Z,156
2022-08-25T02:42:19.000Z,155
2022-08-25T02:43:35.000Z,154
2022-08-25T02:44:50.000Z,153
2022-08-25T02:46:06.000Z,153
2022-08-25T02:47:23.000Z,155
2022-08-25T02:48:39.000Z,153
2022-08-25T02:49:55.000Z,152
2022-08-25T02:51:11.000Z,156
2022-08-25T02:52:27.000Z,154
2022-08-25T02:53:43.000Z,155
2022-08-25T02:54:59.000Z,152
2022-08-25T02:56:15.000Z,153
2022-08-25T02:57:31.000Z,153
2022-08-25T02:58:48.000Z,153
2022-08-25T03:00:04.000Z,154
2022-08-25T03:01:20.000Z,153
2022-08-25T03:02:36.000Z,154
2022-08-25T03:03:53.000Z,155
2022-08-25T03:05:09.000Z,155
2022-08-25T03:06:25.000Z,154
2022-08-25T03:07:41.000Z,154
2022-08-25T03:08:57.000Z,155
2022-08-25T03:10:13.000Z,149
2022-08-25T03:11:29.000Z,152
2022-08-25T03:12:45.000Z,155
2022-08-25T03:14:02.000Z,153
2022-08-25T03:15:18.000Z,154
2022-08-25T03:16:34.000Z,154
2022-08-25T03:17:50.000Z,154
2022-08-25T03:19:06.000Z,153
2022-08-25T03:20:23.000Z,153
2022-08-25T03:21:39.000Z,154
2022-08-25T03:22:55.000Z,153
2022-08-25T03:24:11.000Z,154
2022-08-25T03:25:27.000Z,154
2022-08-25T03:26:43.000Z,157
2022-08-25T03:27:59.000Z,154
2022-08-25T03:29:15.000Z,154
2022-08-25T03:30:32.000Z,154
2022-08-25T03:31:48.000Z,154
2022-08-25T03:33:04.000Z,153
2022-08-25T03:34:20.000Z,155
2022-08-25T03:35:37.000Z,154
2022-08-25T03:36:53.000Z,150
2022-08-25T03:38:09.000Z,153
2022-08-25T03:39:25.000Z,157
2022-08-25T03:40:41.000Z,156
2022-08-25T03:41:57.000Z,156
2022-08-25T03:43:13.000Z,157
2022-08-25T03:44:29.000Z,157
2022-08-25T03:45:45.000Z,155
2022-08-25T03:47:02.000Z,152
2022-08-25T03:48:18.000Z,154
2022-08-25T03:49:34.000Z,157
2022-08-25T03:50:50.000Z,157
2022-08-25T03:52:07.000Z,157
2022-08-25T03:53:23.000Z,157
2022-08-25T03:54:39.000Z,155
2022-08-25T03:55:55.000Z,157
2022-08-25T03:57:11.000Z,156
2022-08-25T03:58:27.000Z,161
2022-08-25T03:59:43.000Z,160
2022-08-25T04:00:59.000Z,161
2022-08-25T04:02:15.000Z,160
2022-08-25T04:03:32.000Z,166
2022-08-25T04:04:48.000Z,166
2022-08-25T04:06:04.000Z,167
2022-08-25T04:07:20.000Z,135
2022-08-25T04:08:37.000Z,11
2022-08-25T04:09:53.000Z,14
2022-08-25T04:11:09.000Z,18
2022-08-25T04:12:24.000Z,25
2022-08-25T04:13:40.000Z,28
2022-08-25T04:14:55.000Z,41
2022-08-25T04:16:10.000Z,40
2022-08-25T04:17:26.000Z,47
2022-08-25T04:18:43.000Z,59
2022-08-25T04:19:59.000Z,72
2022-08-25T04:21:15.000Z,85
2022-08-25T04:22:31.000Z,103
2022-08-25T04:23:48.000Z,120
2022-08-25T04:25:04.000Z,137
2022-08-25T04:26:20.000Z,154
2022-08-25T04:27:36.000Z,177
2022-08-25T04:28:52.000Z,202
2022-08-25T04:30:09.000Z,228
2022-08-25T04:31:25.000Z,255
2022-08-25T04:32:40.000Z,285
2022-08-25T04:33:56.000Z,320
2022-08-25T04:35:13.000Z,355
2022-08-25T04:36:29.000Z,391
2022-08-25T04:37:45.000Z,432
2022-08-25T04:39:01.000Z,472
2022-08-25T04:40:18.000Z,504
2022-08-25T04:41:34.000Z,537
2022-08-25T04:42:50.000Z,574
2022-08-25T04:44:06.000Z,608
2022-08-25T04:45:22.000Z,648
2022-08-25T04:46:39.000Z,683
2022-08-25T04:47:55.000Z,721
2022-08-25T04:49:10.000Z,759
2022-08-25T04:50:26.000Z,795
2022-08-25T04:51:43.000Z,834
2022-08-25T04:52:59.000Z,878
2022-08-25T04:54:15.000Z,924
2022-08-25T04:55:31.000Z,997
2022-08-25T04:56:48.000Z,1070
2022-08-25T04:58:04.000Z,1085
2022-08-25T04:59:20.000Z,1086
2022-08-25T05:00:36.000Z,1104
2022-08-25T05:01:53.000Z,1133
2022-08-25T05:03:09.000Z,1168
2022-08-25T05:04:25.000Z,1204
2022-08-25T05:05:41.000Z,1243
2022-08-25T05:06:56.000Z,1281
2022-08-25T05:08:13.000Z,1315
2022-08-25T05:09:29.000Z,1353
2022-08-25T05:10:45.000Z,1387
2022-08-25T05:12:01.000Z,1422
2022-08-25T05:13:18.000Z,1458
2022-08-25T05:14:34.000Z,1487
2022-08-25T05:15:50.000Z,1518
2022-08-25T05:17:06.000Z,1547
2022-08-25T05:18:23.000Z,1575
2022-08-25T05:19:39.000Z,1603
2022-08-25T05:20:55.000Z,1630
2022-08-25T05:22:11.000Z,1657
2022-08-25T05:23:27.000Z,1680
2022-08-25T05:24:43.000Z,1703
2022-08-25T05:25:59.000Z,1724
2022-08-25T05:27:15.000Z,1746
2022-08-25T05:28:31.000Z,1767
2022-08-25T05:29:48.000Z,1795
2022-08-25T05:31:04.000Z,1815
2022-08-25T05:32:20.000Z,1837
2022-08-25T05:33:36.000Z,1859
2022-08-25T05:34:53.000Z,1878
2022-08-25T05:36:09.000Z,1900
2022-08-25T05:37:25.000Z,1922
2022-08-25T05:38:41.000Z,1940
2022-08-25T05:39:57.000Z,1958
2022-08-25T05:41:13.000Z,1976
2022-08-25T05:42:29.000Z,1997
2022-08-25T05:43:45.000Z,2015
2022-08-25T05:45:02.000Z,2033
2022-08-25T05:46:18.000Z,2050
2022-08-25T05:47:34.000Z,2068
2022-08-25T05:48:50.000Z,2089
2022-08-25T05:50:06.000Z,2113
2022-08-25T05:51:23.000Z,2133
2022-08-25T05:52:39.000Z,2152
2022-08-25T05:53:55.000Z,2170
2022-08-25T05:55:11.000Z,2187
2022-08-25T05:56:27.000Z,2202
2022-08-25T05:57:43.000Z,2221
2022-08-25T05:58:59.000Z,2238
2022-08-25T06:00:15.000Z,2253
2022-08-25T06:01:32.000Z,2269
2022-08-25T06:02:48.000Z,2289
2022-08-25T06:04:04.000Z,2302
2022-08-25T06:05:20.000Z,2315
2022-08-25T06:06:37.000Z,2333
2022-08-25T06:07:53.000Z,2345
2022-08-25T06:09:09.000Z,2362
2022-08-25T06:10:25.000Z,2375
2022-08-25T06:11:41.000Z,2391
2022-08-25T06:12:57.000Z,2412
2022-08-25T06:14:13.000Z,2420
2022-08-25T06:15:29.000Z,2437
2022-08-25T06:16:45.000Z,2451
2022-08-25T06:18:02.000Z,2465
2022-08-25T06:19:18.000Z,2481
2022-08-25T06:20:34.000Z,2491
2022-08-25T06:21:50.000Z,2501
2022-08-25T06:23:07.000Z,2513
2022-08-25T06:24:23.000Z,2526
2022-08-25T06:25:39.000Z,2536
2022-08-25T06:26:55.000Z,2552
2022-08-25T06:28:12.000Z,2564
2022-08-25T06:29:27.000Z,2574
2022-08-25T06:30:43.000Z,2587
2022-08-25T06:31:59.000Z,2600
2022-08-25T06:33:15.000Z,2608
2022-08-25T06:34:32.000Z,2622
2022-08-25T06:35:48.000Z,2629
2022-08-25T06:37:04.000Z,2639
2022-08-25T06:38:20.000Z,2649
2022-08-25T06:39:37.000Z,2660
2022-08-25T06:40:53.000Z,2671
2022-08-25T06:42:09.000Z,2685
2022-08-25T06:43:25.000Z,2696
2022-08-25T06:44:42.000Z,2707
2022-08-25T06:45:57.000Z,2715
2022-08-25T06:47:13.000Z,2726
2022-08-25T06:48:29.000Z,2734
2022-08-25T06:49:46.000Z,2744
2022-08-25T06:51:02.000Z,2750
2022-08-25T06:52:18.000Z,2762
2022-08-25T06:53:34.000Z,2769
2022-08-25T06:54:50.000Z,2779
2022-08-25T06:56:07.000Z,2789
2022-08-25T06:57:23.000Z,2799
2022-08-25T06:58:39.000Z,2811
2022-08-25T06:59:55.000Z,2823
2022-08-25T07:01:12.000Z,2830
2022-08-25T07:02:27.000Z,2839
2022-08-25T07:03:43.000Z,2851
2022-08-25T07:04:59.000Z,2860
2022-08-25T07:06:16.000Z,2871
2022-08-25T07:07:31.000Z,2879
2022-08-25T07:08:47.000Z,2882
2022-08-25T07:10:03.000Z,2891
2022-08-25T07:11:20.000Z,2899
2022-08-25T07:12:36.000Z,2901
2022-08-25T07:13:52.000Z,2913
2022-08-25T07:15:08.000Z,2916
2022-08-25T07:16:24.000Z,2923
2022-08-25T07:17:41.000Z,2929
2022-08-25T07:18:57.000Z,2934
2022-08-25T07:20:12.000Z,2939
2022-08-25T07:21:27.000Z,2946
2022-08-25T07:22:43.000Z,2954
2022-08-25T07:23:58.000Z,2959
2022-08-25T07:25:14.000Z,2965
2022-08-25T07:26:30.000Z,2966
2022-08-25T07:27:47.000Z,2968
2022-08-25T07:29:03.000Z,2972
2022-08-25T07:30:19.000Z,2975
2022-08-25T07:31:35.000Z,2975
2022-08-25T07:32:52.000Z,2982
2022-08-25T07:34:08.000Z,2988
2022-08-25T07:35:24.000Z,2993
2022-08-25T07:36:40.000Z,2999
2022-08-25T07:37:57.000Z,3004
2022-08-25T07:39:13.000Z,3011
2022-08-25T07:40:28.000Z,3016
2022-08-25T07:41:44.000Z,3016
2022-08-25T07:43:00.000Z,3016
2022-08-25T07:44:17.000Z,3022
2022-08-25T07:45:33.000Z,3029
2022-08-25T07:46:49.000Z,3033
2022-08-25T07:48:05.000Z,3035
2022-08-25T07:49:21.000Z,3040
2022-08-25T07:50:36.000Z,3051
2022-08-25T07:51:52.000Z,3065
2022-08-25T07:53:08.000Z,3073
2022-08-25T07:54:24.000Z,3078
2022-08-25T07:55:39.000Z,3083
2022-08-25T07:56:55.000Z,3083
2022-08-25T07:58:11.000Z,3077
2022-08-25T07:59:28.000Z,3072
2022-08-25T08:00:44.000Z,3072
2022-08-25T08:02:00.000Z,3074
2022-08-25T08:03:16.000Z,3075
2022-08-25T08:04:33.000Z,3082
2022-08-25T08:05:49.000Z,3084
2022-08-25T08:07:05.000Z,3089
2022-08-25T08:08:21.000Z,3087
2022-08-25T08:09:37.000Z,3089
2022-08-25T08:10:54.000Z,3097
2022-08-25T08:12:09.000Z,3099
2022-08-25T08:13:25.000Z,3103
2022-08-25T08:14:41.000Z,3112
2022-08-25T08:15:58.000Z,3111
2022-08-25T08:17:14.000Z,3121
2022-08-25T08:18:30.000Z,3122
2022-08-25T08:19:46.000Z,3126
2022-08-25T08:21:02.000Z,3132
2022-08-25T08:22:17.000Z,3130
2022-08-25T08:23:32.000Z,3132
2022-08-25T08:24:48.000Z,3138
2022-08-25T08:26:04.000Z,3138
2022-08-25T08:27:20.000Z,3138
2022-08-25T08:28:36.000Z,3139
2022-08-25T08:29:52.000Z,3145
2022-08-25T08:31:09.000Z,3150
2022-08-25T08:32:25.000Z,3152
2022-08-25T08:33:41.000Z,3155
2022-08-25T08:34:57.000Z,3164
2022-08-25T08:36:13.000Z,3168
2022-08-25T08:37:30.000Z,3168
2022-08-25T08:38:46.000Z,3165
2022-08-25T08:40:02.000Z,3166
2022-08-25T08:41:18.000Z,3179
2022-08-25T08:42:34.000Z,3181
2022-08-25T08:43:50.000Z,3187
2022-08-25T08:45:06.000Z,3188
2022-08-25T08:46:22.000Z,3195
2022-08-25T08:47:39.000Z,3186
2022-08-25T08:48:55.000Z,3185
2022-08-25T08:50:10.000Z,3189
2022-08-25T08:51:25.000Z,3188
2022-08-25T08:52:42.000Z,3195
2022-08-25T08:53:57.000Z,3196
2022-08-25T08:55:12.000Z,3193
2022-08-25T08:56:28.000Z,3195
2022-08-25T08:57:45.000Z,3202
2022-08-25T08:59:01.000Z,3203
2022-08-25T09:00:17.000Z,3209
2022-08-25T09:01:33.000Z,3217
2022-08-25T09:02:50.000Z,3218
2022-08-25T09:04:06.000Z,3222
2022-08-25T09:05:22.000Z,3227
2022-08-25T09:06:38.000Z,3235
2022-08-25T09:07:54.000Z,3233
2022-08-25T09:09:11.000Z,3229
2022-08-25T09:10:27.000Z,3241
2022-08-25T09:11:42.000Z,3250
2022-08-25T09:12:58.000Z,3253
2022-08-25T09:14:15.000Z,3258
2022-08-25T09:15:31.000Z,3272
2022-08-25T09:16:47.000Z,3281
2022-08-25T09:18:03.000Z,3296
2022-08-25T09:19:20.000Z,3296
2022-08-25T09:20:36.000Z,3293
2022-08-25T09:21:52.000Z,3289
2022-08-25T09:23:08.000Z,3282
2022-08-25T09:24:25.000Z,3285
2022-08-25T09:25:41.000Z,3281
2022-08-25T09:26:56.000Z,3275
2022-08-25T09:28:11.000Z,3278
2022-08-25T09:29:27.000Z,3290
2022-08-25T09:30:42.000Z,3293
2022-08-25T09:31:58.000Z,3286
2022-08-25T09:33:14.000Z,3284
2022-08-25T09:34:30.000Z,3279
2022-08-25T09:35:47.000Z,3283
2022-08-25T09:37:03.000Z,3295
2022-08-25T09:38:19.000Z,3303
2022-08-25T09:39:35.000Z,3300
2022-08-25T09:40:52.000Z,3296
2022-08-25T09:42:08.000Z,3312
2022-08-25T09:43:24.000Z,3337
2022-08-25T09:44:40.000Z,3332
2022-08-25T09:45:57.000Z,3309
2022-08-25T09:47:12.000Z,3293
2022-08-25T09:48:28.000Z,3305
2022-08-25T09:49:44.000Z,3301
2022-08-25T09:51:01.000Z,3300
2022-08-25T09:52:17.000Z,3308
2022-08-25T09:53:33.000Z,3333
2022-08-25T09:54:49.000Z,3358
2022-08-25T09:56:04.000Z,3356
2022-08-25T09:57:20.000Z,3349
2022-08-25T09:58:36.000Z,3350
2022-08-25T09:59:52.000Z,3371
2022-08-25T10:01:08.000Z,3391
2022-08-25T10:02:25.000Z,3400
2022-08-25T10:03:41.000Z,3398
2022-08-25T10:04:56.000Z,3394
2022-08-25T10:06:11.000Z,3378
2022-08-25T10:07:28.000Z,3371
2022-08-25T10:08:44.000Z,3367
2022-08-25T10:10:00.000Z,3374
2022-08-25T10:11:16.000Z,3374
2022-08-25T10:12:33.000Z,3376
2022-08-25T10:13:49.000Z,3377
2022-08-25T10:15:05.000Z,3370
2022-08-25T10:16:21.000Z,3363
2022-08-25T10:17:38.000Z,3354
2022-08-25T10:18:54.000Z,3360
2022-08-25T10:20:10.000Z,3373
2022-08-25T10:21:26.000Z,3385
2022-08-25T10:22:41.000Z,3404
2022-08-25T10:23:58.000Z,3434
2022-08-25T10:25:14.000Z,3459
2022-08-25T10:26:30.000Z,3459
2022-08-25T10:27:46.000Z,3453
2022-08-25T10:29:03.000Z,3445
2022-08-25T10:30:19.000Z,3442
2022-08-25T10:31:34.000Z,3449
2022-08-25T10:32:49.000Z,3454
2022-08-25T10:34:06.000Z,3443
2022-08-25T10:35:22.000Z,3413
2022-08-25T10:36:38.000Z,3423
2022-08-25T10:37:54.000Z,3441
2022-08-25T10:39:11.000Z,3436
2022-08-25T10:40:26.000Z,3449
2022-08-25T10:41:41.000Z,3456
2022-08-25T10:42:57.000Z,3476
2022-08-25T10:44:14.000Z,3512
2022-08-25T10:45:30.000Z,3539
2022-08-25T10:46:46.000Z,3553
2022-08-25T10:48:02.000Z,3554
2022-08-25T10:49:18.000Z,3540
2022-08-25T10:50:35.000Z,3516
2022-08-25T10:51:51.000Z,3489
2022-08-25T10:53:07.000Z,3502
2022-08-25T10:54:23.000Z,3521
2022-08-25T10:55:40.000Z,3523
2022-08-25T10:56:56.000Z,3544
2022-08-25T10:58:11.000Z,3564
2022-08-25T10:59:27.000Z,3563
2022-08-25T11:00:44.000Z,3577
2022-08-25T11:02:00.000Z,3609
2022-08-25T11:03:16.000Z,3626
2022-08-25T11:04:32.000Z,3613
2022-08-25T11:05:49.000Z,3602
2022-08-25T11:07:05.000Z,3652
2022-08-25T11:08:21.000Z,3676
2022-08-25T11:09:37.000Z,3669
2022-08-25T11:10:53.000Z,3664
2022-08-25T11:12:10.000Z,3663
2022-08-25T11:13:26.000Z,3678
2022-08-25T11:14:41.000Z,3724
2022-08-25T11:15:57.000Z,3780
2022-08-25T11:17:14.000Z,3812
2022-08-25T11:18:30.000Z,3828
2022-08-25T11:19:46.000Z,3830
2022-08-25T11:21:02.000Z,3836
2022-08-25T11:22:18.000Z,3844
2022-08-25T11:23:34.000Z,3821
2022-08-25T11:24:50.000Z,3796
2022-08-25T11:26:06.000Z,3842
2022-08-25T11:27:23.000Z,3890
2022-08-25T11:28:39.000Z,3904
2022-08-25T11:29:55.000Z,3918
2022-08-25T11:31:11.000Z,3937
2022-08-25T11:32:27.000Z,3927
2022-08-25T11:33:44.000Z,3905
2022-08-25T11:35:00.000Z,3893
2022-08-25T11:36:16.000Z,3890
2022-08-25T11:37:32.000Z,3932
2022-08-25T11:38:48.000Z,3985
2022-08-25T11:40:04.000Z,3981
2022-08-25T11:41:20.000Z,3956
2022-08-25T11:42:36.000Z,4006
2022-08-25T11:43:53.000Z,4056
2022-08-25T11:45:09.000Z,4055
2022-08-25T11:46:25.000Z,4048
2022-08-25T11:47:41.000Z,4071
2022-08-25T11:48:58.000Z,4073
2022-08-25T11:50:14.000Z,4093
2022-08-25T11:51:30.000Z,4087
2022-08-25T11:52:46.000Z,4054
2022-08-25T11:54:02.000Z,4100
2022-08-25T11:55:18.000Z,4146
2022-08-25T11:56:34.000Z,4178
2022-08-25T11:57:50.000Z,4213
2022-08-25T11:59:05.000Z,4223
2022-08-25T12:00:21.000Z,4195
2022-08-25T12:01:36.000Z,4158
2022-08-25T12:02:51.000Z,4148
2022-08-25T12:05:24.000Z,4250
2022-08-25T12:06:40.000Z,4260
2022-08-25T12:07:56.000Z,4240
2022-08-25T12:09:12.000Z,4228
2022-08-25T12:10:29.000Z,4247
2022-08-25T12:11:45.000Z,4330
2022-08-25T12:13:01.000Z,4471
2022-08-25T12:14:17.000Z,4722
2022-08-25T12:15:34.000Z,5363
2022-08-25T12:16:50.000Z,5789
2022-08-25T12:18:06.000Z,5190
2022-08-25T12:19:21.000Z,4717
2022-08-25T12:20:37.000Z,4580
2022-08-25T12:21:54.000Z,4593
2022-08-25T12:23:10.000Z,4622
2022-08-25T12:24:26.000Z,4652
2022-08-25T12:25:42.000Z,4703
2022-08-25T12:26:59.000Z,4906
2022-08-25T12:28:15.000Z,5200
2022-08-25T12:29:30.000Z,5231
2022-08-25T12:30:45.000Z,5013
2022-08-25T12:32:02.000Z,4842
2022-08-25T12:33:18.000Z,4830
2022-08-25T12:34:33.000Z,4859
2022-08-25T12:35:48.000Z,4790
2022-08-25T12:37:05.000Z,4741
2022-08-25T12:38:21.000Z,4775
2022-08-25T12:39:37.000Z,4888
2022-08-25T12:40:53.000Z,5005
2022-08-25T12:42:10.000Z,5036
2022-08-25T12:43:26.000Z,4969
2022-08-25T12:44:42.000Z,5041
2022-08-25T12:45:58.000Z,5039
2022-08-25T12:47:15.000Z,4896
2022-08-25T12:48:31.000Z,4851
2022-08-25T12:49:47.000Z,4810
2022-08-25T12:51:03.000Z,4793
2022-08-25T12:52:18.000Z,4750
2022-08-25T12:53:35.000Z,4708
2022-08-25T12:54:51.000Z,4704
2022-08-25T12:56:07.000Z,4717
2022-08-25T12:57:23.000Z,4728
2022-08-25T12:58:40.000Z,4712
2022-08-25T12:59:56.000Z,4775
2022-08-25T13:01:11.000Z,4850
2022-08-25T13:02:26.000Z,4816
2022-08-25T13:03:43.000Z,4772
2022-08-25T13:04:59.000Z,4833
2022-08-25T13:06:14.000Z,4957
2022-08-25T13:07:29.000Z,5125
2022-08-25T13:08:46.000Z,5317
2022-08-25T13:10:02.000Z,5394
2022-08-25T13:11:18.000Z,5354
2022-08-25T13:12:34.000Z,5158
2022-08-25T13:13:51.000Z,4996
2022-08-25T13:15:07.000Z,4983
2022-08-25T13:16:23.000Z,5010
2022-08-25T13:17:39.000Z,5048
2022-08-25T13:18:55.000Z,5264
2022-08-25T13:20:12.000Z,5748
2022-08-25T13:21:28.000Z,6144
2022-08-25T13:22:44.000Z,6160
2022-08-25T13:23:59.000Z,5871
2022-08-25T13:25:16.000Z,5446
2022-08-25T13:26:32.000Z,5307
2022-08-25T13:27:48.000Z,5362
2022-08-25T13:29:04.000Z,5467
2022-08-25T13:30:21.000Z,5555
2022-08-25T13:31:37.000Z,5654
2022-08-25T13:32:52.000Z,5792
2022-08-25T13:34:07.000Z,6038
2022-08-25T13:35:24.000Z,6570
2022-08-25T13:36:39.000Z,2381
2022-08-25T13:37:54.000Z,11911
2022-08-25T13:39:10.000Z,23868
2022-08-25T13:40:27.000Z,25600
2022-08-25T13:41:43.302Z,27243
2022-08-25T13:42:59.000Z,24812
2022-08-25T13:44:15.000Z,25840
2022-08-25T13:45:31.000Z,29745
2022-08-25T13:46:48.000Z,32047
2022-08-25T13:48:04.000Z,30561
2022-08-25T13:49:20.000Z,31759
2022-08-25T13:50:36.000Z,33577
2022-08-25T13:51:53.000Z,28946
2022-08-25T13:53:09.000Z,29776
2022-08-25T13:54:24.000Z,29427
2022-08-25T13:55:40.000Z,31912
2022-08-25T13:56:57.000Z,33412
2022-08-25T13:58:13.000Z,28942
2022-08-25T13:59:29.000Z,31416
2022-08-25T14:00:45.000Z,30774
2022-08-25T14:02:02.000Z,31436
2022-08-25T14:03:18.000Z,34921
2022-08-25T14:04:34.000Z,35360
2022-08-25T14:05:50.000Z,32666
2022-08-25T14:07:07.000Z,28042
2022-08-25T14:08:23.000Z,26947
2022-08-25T14:09:39.000Z,26531
2022-08-25T14:10:54.000Z,30198
2022-08-25T14:12:10.000Z,33436
2022-08-25T14:13:27.000Z,32664
2022-08-25T14:14:42.000Z,31364
2022-08-25T14:15:57.000Z,30648
2022-08-25T14:17:13.000Z,32509
2022-08-25T14:18:29.000Z,32396
2022-08-25T14:19:44.000Z,33981
2022-08-25T14:21:00.000Z,33729
2022-08-25T14:22:16.000Z,32914
2022-08-25T14:23:33.000Z,32704
2022-08-25T14:24:49.000Z,28895
2022-08-25T14:26:05.000Z,26110
2022-08-25T14:27:21.000Z,29289
2022-08-25T14:28:38.000Z,30982
2022-08-25T14:29:54.000Z,31506
2022-08-25T14:31:10.000Z,30599
2022-08-25T14:32:26.000Z,33230
2022-08-25T14:33:43.000Z,33548
2022-08-25T14:34:59.000Z,28223
2022-08-25T14:36:15.000Z,34356
2022-08-25T14:37:31.000Z,31092
2022-08-25T14:38:46.000Z,27652
2022-08-25T14:40:03.000Z,25862
2022-08-25T14:41:19.000Z,31115
2022-08-25T14:42:35.000Z,27514
2022-08-25T14:43:51.000Z,28916
2022-08-25T14:45:08.000Z,28654
2022-08-25T14:46:24.000Z,34523
2022-08-25T14:47:40.000Z,31177
2022-08-25T14:48:56.000Z,31287
2022-08-25T14:50:13.000Z,30773
2022-08-25T14:51:29.000Z,31727
2022-08-25T14:52:45.000Z,31370
2022-08-25T14:54:01.000Z,30313
2022-08-25T14:55:17.000Z,30434
2022-08-25T14:56:33.000Z,30169
2022-08-25T14:57:49.000Z,32141
2022-08-25T14:59:05.000Z,31189
2022-08-25T15:00:22.000Z,32015
2022-08-25T15:01:38.000Z,34912
2022-08-25T15:02:54.000Z,34114
2022-08-25T15:04:10.000Z,35544
2022-08-25T15:05:26.000Z,33000
2022-08-25T15:06:43.000Z,28447
2022-08-25T15:07:59.000Z,29699
2022-08-25T15:09:15.000Z,27749
2022-08-25T15:10:31.000Z,29455
2022-08-25T15:11:47.000Z,24991
2022-08-25T15:13:03.000Z,7652
2022-08-25T15:14:19.000Z,3233
2022-08-25T15:15:35.000Z,27843
2022-08-25T15:16:52.000Z,6900
2022-08-25T15:18:08.000Z,24349
2022-08-25T15:19:24.000Z,11060
2022-08-25T15:20:40.000Z,7009
2022-08-25T15:21:57.000Z,13564
2022-08-25T15:23:13.000Z,2574
2022-08-25T15:24:29.000Z,14140
2022-08-25T15:25:45.000Z,8563
2022-08-25T15:27:01.000Z,6793
2022-08-25T15:28:17.000Z,14425
2022-08-25T15:29:33.000Z,16121
2022-08-25T15:30:49.000Z,16292
2022-08-25T15:32:05.000Z,15514
2022-08-25T15:33:22.000Z,15888
2022-08-25T15:34:37.000Z,15630
2022-08-25T15:35:52.000Z,15624
2022-08-25T15:37:07.000Z,15503
2022-08-25T15:38:23.000Z,15264
2022-08-25T15:39:38.000Z,15182
2022-08-25T15:40:54.000Z,14837
2022-08-25T15:42:10.000Z,15036
2022-08-25T15:43:27.000Z,15188
2022-08-25T15:44:43.000Z,15296
2022-08-25T15:45:59.000Z,15145
2022-08-25T15:47:15.000Z,15231
2022-08-25T15:48:32.000Z,15137
2022-08-25T15:49:48.000Z,15129
2022-08-25T15:51:04.000Z,14656
2022-08-25T15:52:20.000Z,14540
2022-08-25T15:53:37.000Z,17184
2022-08-25T15:54:53.000Z,14219
2022-08-25T15:56:08.000Z,15995
2022-08-25T15:57:24.000Z,21606
2022-08-25T15:58:40.000Z,22385
2022-08-25T15:59:57.000Z,22225
2022-08-25T16:01:13.000Z,22603
2022-08-25T16:02:29.000Z,18056
2022-08-25T16:03:45.000Z,20469
2022-08-25T16:05:02.000Z,21042
2022-08-25T16:06:18.000Z,18500
2022-08-25T16:07:34.000Z,21256
2022-08-25T16:08:50.000Z,17674
2022-08-25T16:10:07.000Z,17118
2022-08-25T16:11:23.000Z,18408
2022-08-25T16:12:38.000Z,20803
2022-08-25T16:13:54.000Z,17886
2022-08-25T16:15:11.000Z,16561
2022-08-25T16:16:27.000Z,16096
2022-08-25T16:17:43.000Z,16924
2022-08-25T16:18:59.000Z,16178
2022-08-25T16:20:15.000Z,18640
2022-08-25T16:21:32.000Z,18347
2022-08-25T16:22:48.000Z,15012
2022-08-25T16:24:04.000Z,20045
2022-08-25T16:25:20.000Z,17242
2022-08-25T16:26:37.000Z,17049
2022-08-25T16:27:53.000Z,16152
2022-08-25T16:29:08.000Z,15497
2022-08-25T16:30:24.000Z,15831
2022-08-25T16:31:41.000Z,16567
2022-08-25T16:32:57.000Z,14509
2022-08-25T16:34:13.000Z,15092
2022-08-25T16:35:29.000Z,14367
2022-08-25T16:36:46.000Z,15678
2022-08-25T16:38:02.000Z,13032
2022-08-25T16:39:18.000Z,11679
2022-08-25T16:40:34.000Z,11974
2022-08-25T16:41:50.000Z,11565
2022-08-25T16:43:07.000Z,11199
2022-08-25T16:44:23.000Z,11311
2022-08-25T16:45:38.000Z,11544
2022-08-25T16:46:54.000Z,10705
2022-08-25T16:48:11.000Z,11021
2022-08-25T16:49:27.000Z,10201
2022-08-25T16:50:43.000Z,10865
2022-08-25T16:51:59.000Z,10823
2022-08-25T16:53:16.000Z,10433
2022-08-25T16:54:32.000Z,9972
2022-08-25T16:55:48.000Z,9845
2022-08-25T16:57:04.000Z,9794
2022-08-25T16:58:21.000Z,9560